sensor_id;sensor_type;location;lat;lon;timestamp;P1;durP1;ratioP1;P2;durP2;ratioP2
71896;SDS011;59767;51.344;12.362;2023-05-07T00:02:55;14.82;;;9.05;;
71896;SDS011;59767;51.344;12.362;2023-05-07T00:05:59;18.00;;;9.18;;
71896;SDS011;59767;51.344;12.362;2023-05-07T00:09:03;18.52;;;9.02;;
71896;SDS011;59767;51.344;12.362;2023-05-07T00:12:08;16.40;;;9.18;;
71896;SDS011;59767;51.344;12.362;2023-05-07T00:15:12;16.63;;;9.50;;
71896;SDS011;59767;51.344;12.362;2023-05-07T00:18:16;14.65;;;8.25;;
71896;SDS011;59767;51.344;12.362;2023-05-07T00:21:20;14.07;;;8.32;;
71896;SDS011;59767;51.344;12.362;2023-05-07T00:24:24;15.88;;;7.88;;
71896;SDS011;59767;51.344;12.362;2023-05-07T00:27:29;14.02;;;8.05;;
71896;SDS011;59767;51.344;12.362;2023-05-07T00:30:33;14.02;;;7.82;;
71896;SDS011;59767;51.344;12.362;2023-05-07T00:33:37;14.05;;;8.10;;
71896;SDS011;59767;51.344;12.362;2023-05-07T00:36:41;14.52;;;8.25;;
71896;SDS011;59767;51.344;12.362;2023-05-07T00:39:45;14.20;;;8.27;;
71896;SDS011;59767;51.344;12.362;2023-05-07T00:42:49;14.23;;;8.73;;
71896;SDS011;59767;51.344;12.362;2023-05-07T00:45:54;14.05;;;8.60;;
71896;SDS011;59767;51.344;12.362;2023-05-07T00:48:58;14.32;;;8.60;;
71896;SDS011;59767;51.344;12.362;2023-05-07T00:52:02;15.23;;;8.60;;
71896;SDS011;59767;51.344;12.362;2023-05-07T00:55:07;14.93;;;8.85;;
71896;SDS011;59767;51.344;12.362;2023-05-07T00:58:11;14.95;;;9.00;;
71896;SDS011;59767;51.344;12.362;2023-05-07T01:01:16;15.38;;;8.25;;
71896;SDS011;59767;51.344;12.362;2023-05-07T01:04:20;14.57;;;8.95;;
71896;SDS011;59767;51.344;12.362;2023-05-07T01:07:25;13.48;;;8.63;;
71896;SDS011;59767;51.344;12.362;2023-05-07T01:10:29;17.23;;;9.82;;
71896;SDS011;59767;51.344;12.362;2023-05-07T01:13:34;17.48;;;9.80;;
71896;SDS011;59767;51.344;12.362;2023-05-07T01:16:40;16.27;;;9.60;;
71896;SDS011;59767;51.344;12.362;2023-05-07T01:19:45;16.92;;;9.82;;
71896;SDS011;59767;51.344;12.362;2023-05-07T01:22:49;16.30;;;9.70;;
71896;SDS011;59767;51.344;12.362;2023-05-07T01:25:54;16.50;;;9.80;;
71896;SDS011;59767;51.344;12.362;2023-05-07T01:28:58;16.60;;;10.00;;
71896;SDS011;59767;51.344;12.362;2023-05-07T01:32:03;17.33;;;10.40;;
71896;SDS011;59767;51.344;12.362;2023-05-07T01:35:09;17.08;;;10.75;;
71896;SDS011;59767;51.344;12.362;2023-05-07T01:38:15;18.52;;;11.23;;
71896;SDS011;59767;51.344;12.362;2023-05-07T01:41:20;18.98;;;11.23;;
71896;SDS011;59767;51.344;12.362;2023-05-07T01:44:25;21.95;;;11.57;;
71896;SDS011;59767;51.344;12.362;2023-05-07T01:47:29;17.80;;;11.27;;
71896;SDS011;59767;51.344;12.362;2023-05-07T01:50:33;17.88;;;11.20;;
71896;SDS011;59767;51.344;12.362;2023-05-07T01:53:39;20.58;;;11.35;;
71896;SDS011;59767;51.344;12.362;2023-05-07T01:56:44;20.15;;;12.02;;
71896;SDS011;59767;51.344;12.362;2023-05-07T01:59:48;20.63;;;12.90;;
71896;SDS011;59767;51.344;12.362;2023-05-07T02:02:52;20.92;;;13.05;;
71896;SDS011;59767;51.344;12.362;2023-05-07T02:05:57;21.00;;;13.57;;
71896;SDS011;59767;51.344;12.362;2023-05-07T02:09:01;21.65;;;13.80;;
71896;SDS011;59767;51.344;12.362;2023-05-07T02:12:05;20.90;;;14.13;;
71896;SDS011;59767;51.344;12.362;2023-05-07T02:15:09;20.95;;;14.50;;
71896;SDS011;59767;51.344;12.362;2023-05-07T02:18:14;21.00;;;14.15;;
71896;SDS011;59767;51.344;12.362;2023-05-07T02:21:19;20.77;;;14.48;;
71896;SDS011;59767;51.344;12.362;2023-05-07T02:24:23;22.70;;;14.32;;
71896;SDS011;59767;51.344;12.362;2023-05-07T02:27:27;20.52;;;14.07;;
71896;SDS011;59767;51.344;12.362;2023-05-07T02:30:31;20.33;;;13.57;;
71896;SDS011;59767;51.344;12.362;2023-05-07T02:33:36;21.65;;;14.35;;
71896;SDS011;59767;51.344;12.362;2023-05-07T02:36:40;20.17;;;13.80;;
71896;SDS011;59767;51.344;12.362;2023-05-07T02:39:44;21.80;;;14.07;;
71896;SDS011;59767;51.344;12.362;2023-05-07T02:42:48;21.02;;;14.13;;
71896;SDS011;59767;51.344;12.362;2023-05-07T02:46:05;21.65;;;14.52;;
71896;SDS011;59767;51.344;12.362;2023-05-07T02:49:10;19.70;;;13.38;;
71896;SDS011;59767;51.344;12.362;2023-05-07T02:52:14;19.95;;;13.38;;
71896;SDS011;59767;51.344;12.362;2023-05-07T02:55:19;20.67;;;14.27;;
71896;SDS011;59767;51.344;12.362;2023-05-07T02:58:23;20.50;;;13.45;;
71896;SDS011;59767;51.344;12.362;2023-05-07T03:01:27;22.75;;;13.48;;
71896;SDS011;59767;51.344;12.362;2023-05-07T03:04:31;20.65;;;13.82;;
71896;SDS011;59767;51.344;12.362;2023-05-07T03:07:36;20.58;;;13.25;;
71896;SDS011;59767;51.344;12.362;2023-05-07T03:10:40;19.65;;;13.05;;
71896;SDS011;59767;51.344;12.362;2023-05-07T03:13:44;18.98;;;12.68;;
71896;SDS011;59767;51.344;12.362;2023-05-07T03:16:48;20.67;;;13.15;;
71896;SDS011;59767;51.344;12.362;2023-05-07T03:19:53;18.52;;;12.63;;
71896;SDS011;59767;51.344;12.362;2023-05-07T03:22:57;19.95;;;12.32;;
71896;SDS011;59767;51.344;12.362;2023-05-07T03:26:02;20.38;;;12.80;;
71896;SDS011;59767;51.344;12.362;2023-05-07T03:29:06;18.52;;;12.77;;
71896;SDS011;59767;51.344;12.362;2023-05-07T03:32:10;17.55;;;12.38;;
71896;SDS011;59767;51.344;12.362;2023-05-07T03:35:14;17.73;;;11.88;;
71896;SDS011;59767;51.344;12.362;2023-05-07T03:38:18;20.13;;;12.43;;
71896;SDS011;59767;51.344;12.362;2023-05-07T03:41:22;19.95;;;12.57;;
71896;SDS011;59767;51.344;12.362;2023-05-07T03:44:26;18.35;;;12.80;;
71896;SDS011;59767;51.344;12.362;2023-05-07T03:47:30;20.63;;;12.75;;
71896;SDS011;59767;51.344;12.362;2023-05-07T03:50:34;18.58;;;12.25;;
71896;SDS011;59767;51.344;12.362;2023-05-07T03:53:39;23.92;;;13.07;;
71896;SDS011;59767;51.344;12.362;2023-05-07T03:56:43;21.20;;;13.32;;
71896;SDS011;59767;51.344;12.362;2023-05-07T03:59:47;21.08;;;13.45;;
71896;SDS011;59767;51.344;12.362;2023-05-07T04:02:51;20.48;;;13.10;;
71896;SDS011;59767;51.344;12.362;2023-05-07T04:05:56;23.42;;;12.85;;
71896;SDS011;59767;51.344;12.362;2023-05-07T04:09:00;20.55;;;13.88;;
71896;SDS011;59767;51.344;12.362;2023-05-07T04:12:04;20.48;;;14.02;;
71896;SDS011;59767;51.344;12.362;2023-05-07T04:15:08;19.70;;;13.70;;
71896;SDS011;59767;51.344;12.362;2023-05-07T04:18:13;20.70;;;13.02;;
71896;SDS011;59767;51.344;12.362;2023-05-07T04:21:18;21.23;;;13.55;;
71896;SDS011;59767;51.344;12.362;2023-05-07T04:24:23;25.65;;;12.98;;
71896;SDS011;59767;51.344;12.362;2023-05-07T04:27:27;20.48;;;12.85;;
71896;SDS011;59767;51.344;12.362;2023-05-07T04:30:31;20.55;;;13.65;;
71896;SDS011;59767;51.344;12.362;2023-05-07T04:33:35;24.25;;;13.23;;
71896;SDS011;59767;51.344;12.362;2023-05-07T04:36:39;20.88;;;13.48;;
71896;SDS011;59767;51.344;12.362;2023-05-07T04:39:43;23.15;;;14.25;;
71896;SDS011;59767;51.344;12.362;2023-05-07T04:42:47;20.58;;;13.25;;
71896;SDS011;59767;51.344;12.362;2023-05-07T04:45:51;22.70;;;12.55;;
71896;SDS011;59767;51.344;12.362;2023-05-07T04:48:56;25.20;;;13.90;;
71896;SDS011;59767;51.344;12.362;2023-05-07T04:51:59;22.98;;;13.27;;
71896;SDS011;59767;51.344;12.362;2023-05-07T04:55:04;22.38;;;13.60;;
71896;SDS011;59767;51.344;12.362;2023-05-07T04:58:08;20.80;;;12.80;;
71896;SDS011;59767;51.344;12.362;2023-05-07T05:01:12;20.58;;;12.38;;
71896;SDS011;59767;51.344;12.362;2023-05-07T05:04:19;19.60;;;11.68;;
71896;SDS011;59767;51.344;12.362;2023-05-07T05:07:23;19.45;;;12.15;;
71896;SDS011;59767;51.344;12.362;2023-05-07T05:10:27;19.48;;;10.85;;
71896;SDS011;59767;51.344;12.362;2023-05-07T05:13:31;20.75;;;11.40;;
71896;SDS011;59767;51.344;12.362;2023-05-07T05:16:36;18.52;;;10.70;;
71896;SDS011;59767;51.344;12.362;2023-05-07T05:19:41;17.88;;;10.63;;
71896;SDS011;59767;51.344;12.362;2023-05-07T05:22:45;16.35;;;9.75;;
71896;SDS011;59767;51.344;12.362;2023-05-07T05:25:50;17.55;;;9.50;;
71896;SDS011;59767;51.344;12.362;2023-05-07T05:28:54;19.30;;;9.63;;
71896;SDS011;59767;51.344;12.362;2023-05-07T05:31:58;17.17;;;9.57;;
71896;SDS011;59767;51.344;12.362;2023-05-07T05:35:02;16.95;;;10.00;;
71896;SDS011;59767;51.344;12.362;2023-05-07T05:38:07;14.27;;;8.85;;
71896;SDS011;59767;51.344;12.362;2023-05-07T05:41:11;12.73;;;8.05;;
71896;SDS011;59767;51.344;12.362;2023-05-07T05:44:14;15.32;;;8.40;;
71896;SDS011;59767;51.344;12.362;2023-05-07T05:47:18;16.80;;;8.48;;
71896;SDS011;59767;51.344;12.362;2023-05-07T05:50:22;14.75;;;8.27;;
71896;SDS011;59767;51.344;12.362;2023-05-07T05:53:26;14.68;;;9.02;;
71896;SDS011;59767;51.344;12.362;2023-05-07T05:56:30;13.48;;;7.85;;
71896;SDS011;59767;51.344;12.362;2023-05-07T05:59:34;13.68;;;8.02;;
71896;SDS011;59767;51.344;12.362;2023-05-07T06:02:39;13.18;;;7.70;;
71896;SDS011;59767;51.344;12.362;2023-05-07T06:05:43;13.18;;;7.75;;
71896;SDS011;59767;51.344;12.362;2023-05-07T06:08:47;14.48;;;8.70;;
71896;SDS011;59767;51.344;12.362;2023-05-07T06:11:52;15.13;;;8.68;;
71896;SDS011;59767;51.344;12.362;2023-05-07T06:14:56;16.08;;;8.80;;
71896;SDS011;59767;51.344;12.362;2023-05-07T06:18:00;16.23;;;9.30;;
71896;SDS011;59767;51.344;12.362;2023-05-07T06:21:04;15.65;;;9.05;;
71896;SDS011;59767;51.344;12.362;2023-05-07T06:24:08;14.68;;;9.13;;
71896;SDS011;59767;51.344;12.362;2023-05-07T06:27:12;15.52;;;9.07;;
71896;SDS011;59767;51.344;12.362;2023-05-07T06:30:17;16.02;;;8.88;;
71896;SDS011;59767;51.344;12.362;2023-05-07T06:33:21;14.30;;;8.75;;
71896;SDS011;59767;51.344;12.362;2023-05-07T06:36:25;14.82;;;9.25;;
71896;SDS011;59767;51.344;12.362;2023-05-07T06:39:30;18.25;;;9.27;;
71896;SDS011;59767;51.344;12.362;2023-05-07T06:42:35;17.52;;;9.25;;
71896;SDS011;59767;51.344;12.362;2023-05-07T06:45:39;16.77;;;9.93;;
71896;SDS011;59767;51.344;12.362;2023-05-07T06:48:43;17.23;;;9.82;;
71896;SDS011;59767;51.344;12.362;2023-05-07T06:51:48;17.13;;;10.02;;
71896;SDS011;59767;51.344;12.362;2023-05-07T06:54:52;16.23;;;10.02;;
71896;SDS011;59767;51.344;12.362;2023-05-07T06:57:56;17.02;;;9.55;;
71896;SDS011;59767;51.344;12.362;2023-05-07T07:01:04;15.13;;;9.00;;
71896;SDS011;59767;51.344;12.362;2023-05-07T07:04:08;13.48;;;8.20;;
71896;SDS011;59767;51.344;12.362;2023-05-07T07:07:12;15.82;;;8.70;;
71896;SDS011;59767;51.344;12.362;2023-05-07T07:10:16;13.63;;;7.97;;
71896;SDS011;59767;51.344;12.362;2023-05-07T07:13:20;13.60;;;7.75;;
71896;SDS011;59767;51.344;12.362;2023-05-07T07:16:24;18.70;;;8.57;;
71896;SDS011;59767;51.344;12.362;2023-05-07T07:19:29;12.63;;;8.02;;
71896;SDS011;59767;51.344;12.362;2023-05-07T07:22:33;15.18;;;7.72;;
71896;SDS011;59767;51.344;12.362;2023-05-07T07:25:37;14.02;;;8.07;;
71896;SDS011;59767;51.344;12.362;2023-05-07T07:28:46;16.33;;;7.70;;
71896;SDS011;59767;51.344;12.362;2023-05-07T07:31:50;11.30;;;6.82;;
71896;SDS011;59767;51.344;12.362;2023-05-07T07:34:54;13.50;;;6.40;;
71896;SDS011;59767;51.344;12.362;2023-05-07T07:37:58;13.15;;;6.50;;
71896;SDS011;59767;51.344;12.362;2023-05-07T07:41:02;10.07;;;5.68;;
71896;SDS011;59767;51.344;12.362;2023-05-07T07:44:07;9.85;;;5.43;;
71896;SDS011;59767;51.344;12.362;2023-05-07T07:47:12;9.05;;;5.72;;
71896;SDS011;59767;51.344;12.362;2023-05-07T07:50:16;10.52;;;5.80;;
71896;SDS011;59767;51.344;12.362;2023-05-07T07:53:40;11.18;;;5.45;;
71896;SDS011;59767;51.344;12.362;2023-05-07T07:56:44;9.60;;;5.50;;
71896;SDS011;59767;51.344;12.362;2023-05-07T07:59:49;9.80;;;5.15;;
71896;SDS011;59767;51.344;12.362;2023-05-07T08:02:54;7.95;;;4.80;;
71896;SDS011;59767;51.344;12.362;2023-05-07T08:05:58;11.55;;;4.70;;
71896;SDS011;59767;51.344;12.362;2023-05-07T08:09:02;9.88;;;4.53;;
71896;SDS011;59767;51.344;12.362;2023-05-07T08:12:06;10.20;;;5.25;;
71896;SDS011;59767;51.344;12.362;2023-05-07T08:15:10;7.63;;;4.50;;
71896;SDS011;59767;51.344;12.362;2023-05-07T08:18:14;7.78;;;4.70;;
71896;SDS011;59767;51.344;12.362;2023-05-07T08:21:18;8.55;;;5.25;;
71896;SDS011;59767;51.344;12.362;2023-05-07T08:24:22;9.10;;;4.80;;
71896;SDS011;59767;51.344;12.362;2023-05-07T08:27:26;10.45;;;4.75;;
71896;SDS011;59767;51.344;12.362;2023-05-07T08:30:30;7.80;;;4.28;;
71896;SDS011;59767;51.344;12.362;2023-05-07T08:33:35;8.30;;;4.40;;
71896;SDS011;59767;51.344;12.362;2023-05-07T08:36:38;9.95;;;4.45;;
71896;SDS011;59767;51.344;12.362;2023-05-07T08:39:45;8.35;;;4.10;;
71896;SDS011;59767;51.344;12.362;2023-05-07T08:42:49;9.80;;;4.35;;
71896;SDS011;59767;51.344;12.362;2023-05-07T08:45:55;7.88;;;4.55;;
71896;SDS011;59767;51.344;12.362;2023-05-07T08:49:03;9.10;;;4.72;;
71896;SDS011;59767;51.344;12.362;2023-05-07T08:52:07;9.70;;;4.80;;
71896;SDS011;59767;51.344;12.362;2023-05-07T08:55:13;8.48;;;5.00;;
71896;SDS011;59767;51.344;12.362;2023-05-07T08:58:18;8.88;;;4.85;;
71896;SDS011;59767;51.344;12.362;2023-05-07T09:01:22;9.82;;;4.70;;
71896;SDS011;59767;51.344;12.362;2023-05-07T09:04:27;9.82;;;5.15;;
71896;SDS011;59767;51.344;12.362;2023-05-07T09:07:31;8.88;;;5.07;;
71896;SDS011;59767;51.344;12.362;2023-05-07T09:10:36;8.15;;;4.85;;
71896;SDS011;59767;51.344;12.362;2023-05-07T09:13:40;9.40;;;4.68;;
71896;SDS011;59767;51.344;12.362;2023-05-07T09:16:44;9.43;;;4.68;;
71896;SDS011;59767;51.344;12.362;2023-05-07T09:19:50;7.80;;;4.70;;
71896;SDS011;59767;51.344;12.362;2023-05-07T09:22:55;9.70;;;4.95;;
71896;SDS011;59767;51.344;12.362;2023-05-07T09:25:59;8.18;;;4.80;;
71896;SDS011;59767;51.344;12.362;2023-05-07T09:29:04;9.25;;;5.10;;
71896;SDS011;59767;51.344;12.362;2023-05-07T09:32:08;8.15;;;4.70;;
71896;SDS011;59767;51.344;12.362;2023-05-07T09:35:16;10.38;;;4.75;;
71896;SDS011;59767;51.344;12.362;2023-05-07T09:38:21;10.40;;;5.45;;
71896;SDS011;59767;51.344;12.362;2023-05-07T09:41:26;9.57;;;5.10;;
71896;SDS011;59767;51.344;12.362;2023-05-07T09:44:31;9.77;;;5.40;;
71896;SDS011;59767;51.344;12.362;2023-05-07T09:47:35;8.80;;;5.20;;
71896;SDS011;59767;51.344;12.362;2023-05-07T09:50:49;8.32;;;4.88;;
71896;SDS011;59767;51.344;12.362;2023-05-07T09:53:56;9.88;;;4.95;;
71896;SDS011;59767;51.344;12.362;2023-05-07T09:57:07;8.48;;;5.10;;
71896;SDS011;59767;51.344;12.362;2023-05-07T10:00:13;13.15;;;5.50;;
71896;SDS011;59767;51.344;12.362;2023-05-07T10:03:18;9.20;;;5.10;;
71896;SDS011;59767;51.344;12.362;2023-05-07T10:06:24;11.18;;;6.03;;
71896;SDS011;59767;51.344;12.362;2023-05-07T10:09:29;9.82;;;5.20;;
71896;SDS011;59767;51.344;12.362;2023-05-07T10:12:34;8.75;;;4.80;;
71896;SDS011;59767;51.344;12.362;2023-05-07T10:15:42;9.10;;;4.68;;
71896;SDS011;59767;51.344;12.362;2023-05-07T10:18:48;8.15;;;4.30;;
71896;SDS011;59767;51.344;12.362;2023-05-07T10:21:55;9.65;;;4.30;;
71896;SDS011;59767;51.344;12.362;2023-05-07T10:25:01;9.18;;;4.53;;
71896;SDS011;59767;51.344;12.362;2023-05-07T10:28:10;9.02;;;4.30;;
71896;SDS011;59767;51.344;12.362;2023-05-07T10:31:23;9.85;;;4.28;;
71896;SDS011;59767;51.344;12.362;2023-05-07T10:34:34;10.15;;;4.18;;
71896;SDS011;59767;51.344;12.362;2023-05-07T10:37:40;7.60;;;4.20;;
71896;SDS011;59767;51.344;12.362;2023-05-07T10:40:45;10.07;;;4.45;;
71896;SDS011;59767;51.344;12.362;2023-05-07T10:43:52;8.65;;;4.53;;
71896;SDS011;59767;51.344;12.362;2023-05-07T10:47:03;8.10;;;3.95;;
71896;SDS011;59767;51.344;12.362;2023-05-07T10:59:29;9.35;;;4.65;;
71896;SDS011;59767;51.344;12.362;2023-05-07T11:06:15;10.00;;;5.55;;
71896;SDS011;59767;51.344;12.362;2023-05-07T11:09:20;11.20;;;5.65;;
71896;SDS011;59767;51.344;12.362;2023-05-07T11:15:45;8.55;;;5.28;;
71896;SDS011;59767;51.344;12.362;2023-05-07T11:18:51;13.25;;;5.88;;
71896;SDS011;59767;51.344;12.362;2023-05-07T11:21:56;11.63;;;5.50;;
71896;SDS011;59767;51.344;12.362;2023-05-07T11:25:01;10.38;;;5.47;;
71896;SDS011;59767;51.344;12.362;2023-05-07T11:28:06;11.27;;;5.75;;
71896;SDS011;59767;51.344;12.362;2023-05-07T11:31:13;9.13;;;5.15;;
71896;SDS011;59767;51.344;12.362;2023-05-07T11:34:20;8.52;;;5.18;;
71896;SDS011;59767;51.344;12.362;2023-05-07T11:37:46;8.15;;;4.40;;
71896;SDS011;59767;51.344;12.362;2023-05-07T11:40:52;8.77;;;4.45;;
71896;SDS011;59767;51.344;12.362;2023-05-07T11:43:57;9.88;;;4.60;;
71896;SDS011;59767;51.344;12.362;2023-05-07T11:47:02;11.48;;;4.40;;
71896;SDS011;59767;51.344;12.362;2023-05-07T11:50:07;7.53;;;4.50;;
71896;SDS011;59767;51.344;12.362;2023-05-07T11:53:11;9.02;;;4.82;;
71896;SDS011;59767;51.344;12.362;2023-05-07T11:56:17;9.85;;;4.78;;
71896;SDS011;59767;51.344;12.362;2023-05-07T11:59:22;9.48;;;4.88;;
71896;SDS011;59767;51.344;12.362;2023-05-07T12:02:26;9.65;;;4.60;;
71896;SDS011;59767;51.344;12.362;2023-05-07T12:05:32;10.75;;;5.00;;
71896;SDS011;59767;51.344;12.362;2023-05-07T12:08:37;9.32;;;5.15;;
71896;SDS011;59767;51.344;12.362;2023-05-07T12:11:41;9.73;;;5.32;;
71896;SDS011;59767;51.344;12.362;2023-05-07T12:14:49;11.55;;;5.50;;
71896;SDS011;59767;51.344;12.362;2023-05-07T12:17:53;11.15;;;5.30;;
71896;SDS011;59767;51.344;12.362;2023-05-07T12:20:58;9.35;;;4.97;;
71896;SDS011;59767;51.344;12.362;2023-05-07T12:24:03;10.23;;;4.85;;
71896;SDS011;59767;51.344;12.362;2023-05-07T12:27:07;9.60;;;4.90;;
71896;SDS011;59767;51.344;12.362;2023-05-07T12:30:11;8.60;;;4.75;;
71896;SDS011;59767;51.344;12.362;2023-05-07T12:33:22;8.68;;;4.65;;
71896;SDS011;59767;51.344;12.362;2023-05-07T12:36:35;9.70;;;4.65;;
71896;SDS011;59767;51.344;12.362;2023-05-07T12:39:44;9.33;;;5.17;;
71896;SDS011;59767;51.344;12.362;2023-05-07T12:42:54;8.75;;;5.10;;
71896;SDS011;59767;51.344;12.362;2023-05-07T12:46:01;10.48;;;5.00;;
71896;SDS011;59767;51.344;12.362;2023-05-07T12:49:10;8.60;;;4.53;;
71896;SDS011;59767;51.344;12.362;2023-05-07T12:52:14;9.43;;;4.70;;
71896;SDS011;59767;51.344;12.362;2023-05-07T12:55:18;8.27;;;4.38;;
71896;SDS011;59767;51.344;12.362;2023-05-07T12:58:24;8.50;;;4.20;;
71896;SDS011;59767;51.344;12.362;2023-05-07T13:01:31;8.15;;;4.20;;
71896;SDS011;59767;51.344;12.362;2023-05-07T13:04:37;8.50;;;4.40;;
71896;SDS011;59767;51.344;12.362;2023-05-07T13:07:51;8.90;;;4.38;;
71896;SDS011;59767;51.344;12.362;2023-05-07T13:11:00;8.27;;;3.88;;
71896;SDS011;59767;51.344;12.362;2023-05-07T13:14:08;9.27;;;4.30;;
71896;SDS011;59767;51.344;12.362;2023-05-07T13:17:12;7.95;;;3.90;;
71896;SDS011;59767;51.344;12.362;2023-05-07T13:20:17;8.48;;;4.50;;
71896;SDS011;59767;51.344;12.362;2023-05-07T13:23:21;8.18;;;4.20;;
71896;SDS011;59767;51.344;12.362;2023-05-07T13:26:25;7.70;;;3.85;;
71896;SDS011;59767;51.344;12.362;2023-05-07T13:29:29;7.93;;;4.10;;
71896;SDS011;59767;51.344;12.362;2023-05-07T13:32:34;9.32;;;4.07;;
71896;SDS011;59767;51.344;12.362;2023-05-07T13:35:38;8.60;;;4.00;;
71896;SDS011;59767;51.344;12.362;2023-05-07T13:38:43;6.97;;;3.50;;
71896;SDS011;59767;51.344;12.362;2023-05-07T13:41:47;7.95;;;3.97;;
71896;SDS011;59767;51.344;12.362;2023-05-07T13:44:51;7.85;;;3.88;;
71896;SDS011;59767;51.344;12.362;2023-05-07T13:47:56;7.50;;;3.78;;
71896;SDS011;59767;51.344;12.362;2023-05-07T13:51:01;9.40;;;3.60;;
71896;SDS011;59767;51.344;12.362;2023-05-07T13:54:05;6.47;;;3.17;;
71896;SDS011;59767;51.344;12.362;2023-05-07T13:57:09;7.60;;;3.28;;
71896;SDS011;59767;51.344;12.362;2023-05-07T14:00:13;6.53;;;3.00;;
71896;SDS011;59767;51.344;12.362;2023-05-07T14:03:18;8.20;;;3.13;;
71896;SDS011;59767;51.344;12.362;2023-05-07T14:06:23;6.18;;;3.05;;
71896;SDS011;59767;51.344;12.362;2023-05-07T14:09:28;6.25;;;2.80;;
71896;SDS011;59767;51.344;12.362;2023-05-07T14:12:32;7.32;;;3.05;;
71896;SDS011;59767;51.344;12.362;2023-05-07T14:15:36;6.10;;;2.92;;
71896;SDS011;59767;51.344;12.362;2023-05-07T14:18:41;6.75;;;3.10;;
71896;SDS011;59767;51.344;12.362;2023-05-07T14:21:45;7.78;;;2.90;;
71896;SDS011;59767;51.344;12.362;2023-05-07T14:24:50;5.40;;;2.70;;
71896;SDS011;59767;51.344;12.362;2023-05-07T14:28:09;7.03;;;2.80;;
71896;SDS011;59767;51.344;12.362;2023-05-07T14:31:13;5.45;;;2.60;;
71896;SDS011;59767;51.344;12.362;2023-05-07T14:34:17;7.68;;;2.88;;
71896;SDS011;59767;51.344;12.362;2023-05-07T14:37:23;6.55;;;2.60;;
71896;SDS011;59767;51.344;12.362;2023-05-07T14:40:28;6.18;;;2.55;;
71896;SDS011;59767;51.344;12.362;2023-05-07T14:43:31;4.10;;;2.17;;
71896;SDS011;59767;51.344;12.362;2023-05-07T14:46:35;6.00;;;2.13;;
71896;SDS011;59767;51.344;12.362;2023-05-07T14:49:40;6.93;;;2.20;;
71896;SDS011;59767;51.344;12.362;2023-05-07T14:52:47;6.78;;;2.60;;
71896;SDS011;59767;51.344;12.362;2023-05-07T14:55:51;4.82;;;2.40;;
71896;SDS011;59767;51.344;12.362;2023-05-07T14:58:55;5.50;;;2.53;;
71896;SDS011;59767;51.344;12.362;2023-05-07T15:01:59;6.07;;;2.67;;
71896;SDS011;59767;51.344;12.362;2023-05-07T15:05:06;5.60;;;2.47;;
71896;SDS011;59767;51.344;12.362;2023-05-07T15:08:10;4.45;;;2.13;;
71896;SDS011;59767;51.344;12.362;2023-05-07T15:11:15;5.72;;;2.42;;
71896;SDS011;59767;51.344;12.362;2023-05-07T15:14:19;6.40;;;2.60;;
71896;SDS011;59767;51.344;12.362;2023-05-07T15:17:25;5.65;;;2.40;;
71896;SDS011;59767;51.344;12.362;2023-05-07T15:20:29;4.68;;;2.25;;
71896;SDS011;59767;51.344;12.362;2023-05-07T15:23:33;5.18;;;2.20;;
71896;SDS011;59767;51.344;12.362;2023-05-07T15:26:38;5.47;;;2.40;;
71896;SDS011;59767;51.344;12.362;2023-05-07T15:29:42;4.78;;;2.53;;
71896;SDS011;59767;51.344;12.362;2023-05-07T15:32:46;6.05;;;2.80;;
71896;SDS011;59767;51.344;12.362;2023-05-07T15:35:51;6.82;;;2.65;;
71896;SDS011;59767;51.344;12.362;2023-05-07T15:38:55;5.35;;;2.80;;
71896;SDS011;59767;51.344;12.362;2023-05-07T15:41:59;7.72;;;2.70;;
71896;SDS011;59767;51.344;12.362;2023-05-07T15:45:05;6.10;;;2.85;;
71896;SDS011;59767;51.344;12.362;2023-05-07T15:48:09;5.60;;;2.80;;
71896;SDS011;59767;51.344;12.362;2023-05-07T15:51:13;6.95;;;2.47;;
71896;SDS011;59767;51.344;12.362;2023-05-07T15:54:18;5.43;;;2.80;;
71896;SDS011;59767;51.344;12.362;2023-05-07T15:57:23;7.57;;;2.83;;
71896;SDS011;59767;51.344;12.362;2023-05-07T16:00:27;9.55;;;2.83;;
71896;SDS011;59767;51.344;12.362;2023-05-07T16:03:32;6.68;;;3.40;;
71896;SDS011;59767;51.344;12.362;2023-05-07T16:06:36;7.35;;;3.20;;
71896;SDS011;59767;51.344;12.362;2023-05-07T16:09:40;7.57;;;3.05;;
71896;SDS011;59767;51.344;12.362;2023-05-07T16:12:45;9.02;;;3.67;;
71896;SDS011;59767;51.344;12.362;2023-05-07T16:15:49;7.18;;;3.38;;
71896;SDS011;59767;51.344;12.362;2023-05-07T16:18:53;6.13;;;3.40;;
71896;SDS011;59767;51.344;12.362;2023-05-07T16:21:57;7.35;;;3.55;;
71896;SDS011;59767;51.344;12.362;2023-05-07T16:25:01;7.60;;;3.80;;
71896;SDS011;59767;51.344;12.362;2023-05-07T16:28:05;7.68;;;4.00;;
71896;SDS011;59767;51.344;12.362;2023-05-07T16:31:10;6.38;;;3.47;;
71896;SDS011;59767;51.344;12.362;2023-05-07T16:34:14;9.30;;;3.50;;
71896;SDS011;59767;51.344;12.362;2023-05-07T16:37:18;9.25;;;3.80;;
71896;SDS011;59767;51.344;12.362;2023-05-07T16:40:24;8.93;;;3.65;;
71896;SDS011;59767;51.344;12.362;2023-05-07T16:43:29;9.20;;;4.30;;
71896;SDS011;59767;51.344;12.362;2023-05-07T16:46:33;8.88;;;4.05;;
71896;SDS011;59767;51.344;12.362;2023-05-07T16:49:37;8.35;;;4.05;;
71896;SDS011;59767;51.344;12.362;2023-05-07T16:52:41;11.02;;;4.88;;
71896;SDS011;59767;51.344;12.362;2023-05-07T16:55:48;8.32;;;4.43;;
71896;SDS011;59767;51.344;12.362;2023-05-07T16:58:54;8.27;;;3.88;;
71896;SDS011;59767;51.344;12.362;2023-05-07T17:01:58;8.18;;;4.05;;
71896;SDS011;59767;51.344;12.362;2023-05-07T17:05:02;7.97;;;3.97;;
71896;SDS011;59767;51.344;12.362;2023-05-07T17:08:09;8.77;;;3.75;;
71896;SDS011;59767;51.344;12.362;2023-05-07T17:11:13;9.23;;;4.20;;
71896;SDS011;59767;51.344;12.362;2023-05-07T17:14:20;8.90;;;3.83;;
71896;SDS011;59767;51.344;12.362;2023-05-07T17:17:24;9.07;;;3.80;;
71896;SDS011;59767;51.344;12.362;2023-05-07T17:20:28;8.98;;;3.67;;
71896;SDS011;59767;51.344;12.362;2023-05-07T17:23:32;10.27;;;3.95;;
71896;SDS011;59767;51.344;12.362;2023-05-07T17:26:36;9.60;;;3.83;;
71896;SDS011;59767;51.344;12.362;2023-05-07T17:29:41;7.07;;;3.70;;
71896;SDS011;59767;51.344;12.362;2023-05-07T17:32:45;7.30;;;3.90;;
71896;SDS011;59767;51.344;12.362;2023-05-07T17:35:51;7.88;;;4.03;;
71896;SDS011;59767;51.344;12.362;2023-05-07T17:38:55;8.30;;;4.00;;
71896;SDS011;59767;51.344;12.362;2023-05-07T17:41:59;7.45;;;3.90;;
71896;SDS011;59767;51.344;12.362;2023-05-07T17:45:03;8.45;;;4.40;;
71896;SDS011;59767;51.344;12.362;2023-05-07T17:48:08;8.18;;;4.10;;
71896;SDS011;59767;51.344;12.362;2023-05-07T17:51:12;8.13;;;4.43;;
71896;SDS011;59767;51.344;12.362;2023-05-07T17:54:16;8.00;;;4.43;;
71896;SDS011;59767;51.344;12.362;2023-05-07T17:57:20;12.25;;;4.95;;
71896;SDS011;59767;51.344;12.362;2023-05-07T18:00:24;8.50;;;4.20;;
71896;SDS011;59767;51.344;12.362;2023-05-07T18:03:28;10.02;;;4.40;;
71896;SDS011;59767;51.344;12.362;2023-05-07T18:06:34;9.35;;;4.80;;
71896;SDS011;59767;51.344;12.362;2023-05-07T18:09:39;9.20;;;4.55;;
71896;SDS011;59767;51.344;12.362;2023-05-07T18:12:43;9.07;;;4.10;;
71896;SDS011;59767;51.344;12.362;2023-05-07T18:15:47;9.43;;;4.07;;
71896;SDS011;59767;51.344;12.362;2023-05-07T18:18:53;7.75;;;4.35;;
71896;SDS011;59767;51.344;12.362;2023-05-07T18:21:58;8.07;;;4.30;;
71896;SDS011;59767;51.344;12.362;2023-05-07T18:25:02;8.93;;;4.82;;